sensor_id;sensor_type;location;lat;lon;timestamp;P1;P2;P0
47081;PMS5003;33066;49.296;14.470;2022-07-01T00:01:49;21;18;
47081;PMS5003;33066;49.296;14.470;2022-07-01T00:04:14;23;23;
47081;PMS5003;33066;49.296;14.470;2022-07-01T00:06:40;24;22;
47081;PMS5003;33066;49.296;14.470;2022-07-01T00:09:05;31;28;
47081;PMS5003;33066;49.296;14.470;2022-07-01T00:11:31;29;28;
47081;PMS5003;33066;49.296;14.470;2022-07-01T00:13:56;27;25;
47081;PMS5003;33066;49.296;14.470;2022-07-01T00:16:21;41;38;
47081;PMS5003;33066;49.296;14.470;2022-07-01T00:18:47;29;25;
47081;PMS5003;33066;49.296;14.470;2022-07-01T00:21:12;23;21;
47081;PMS5003;33066;49.296;14.470;2022-07-01T00:23:38;31;28;
47081;PMS5003;33066;49.296;14.470;2022-07-01T00:26:04;32;30;
47081;PMS5003;33066;49.296;14.470;2022-07-01T00:28:29;31;27;
47081;PMS5003;33066;49.296;14.470;2022-07-01T00:30:55;26;25;
47081;PMS5003;33066;49.296;14.470;2022-07-01T00:33:22;31;30;
47081;PMS5003;33066;49.296;14.470;2022-07-01T00:35:45;18;16;
47081;PMS5003;33066;49.296;14.470;2022-07-01T00:38:12;28;26;
47081;PMS5003;33066;49.296;14.470;2022-07-01T00:40:36;26;25;
47081;PMS5003;33066;49.296;14.470;2022-07-01T00:43:01;23;20;
47081;PMS5003;33066;49.296;14.470;2022-07-01T00:45:26;25;22;
47081;PMS5003;33066;49.296;14.470;2022-07-01T00:47:51;27;21;
47081;PMS5003;33066;49.296;14.470;2022-07-01T00:50:16;24;19;
47081;PMS5003;33066;49.296;14.470;2022-07-01T00:52:42;27;21;
47081;PMS5003;33066;49.296;14.470;2022-07-01T00:55:08;19;17;
47081;PMS5003;33066;49.296;14.470;2022-07-01T00:57:35;22;22;
47081;PMS5003;33066;49.296;14.470;2022-07-01T00:59:58;24;23;
47081;PMS5003;33066;49.296;14.470;2022-07-01T01:02:23;18;18;
47081;PMS5003;33066;49.296;14.470;2022-07-01T01:04:49;24;21;
47081;PMS5003;33066;49.296;14.470;2022-07-01T01:07:15;21;19;
47081;PMS5003;33066;49.296;14.470;2022-07-01T01:09:40;26;22;
47081;PMS5003;33066;49.296;14.470;2022-07-01T01:12:06;22;20;
47081;PMS5003;33066;49.296;14.470;2022-07-01T01:16:57;18;18;
47081;PMS5003;33066;49.296;14.470;2022-07-01T01:19:22;29;25;
47081;PMS5003;33066;49.296;14.470;2022-07-01T01:21:48;22;22;
47081;PMS5003;33066;49.296;14.470;2022-07-01T01:24:13;18;18;
47081;PMS5003;33066;49.296;14.470;2022-07-01T01:26:38;25;20;
47081;PMS5003;33066;49.296;14.470;2022-07-01T01:29:04;17;17;
47081;PMS5003;33066;49.296;14.470;2022-07-01T01:31:30;20;19;
47081;PMS5003;33066;49.296;14.470;2022-07-01T01:33:55;20;17;
47081;PMS5003;33066;49.296;14.470;2022-07-01T01:36:20;17;17;
47081;PMS5003;33066;49.296;14.470;2022-07-01T01:38:46;21;19;
47081;PMS5003;33066;49.296;14.470;2022-07-01T01:41:12;25;24;
47081;PMS5003;33066;49.296;14.470;2022-07-01T01:43:37;26;24;
47081;PMS5003;33066;49.296;14.470;2022-07-01T01:46:03;27;24;
47081;PMS5003;33066;49.296;14.470;2022-07-01T01:48:28;22;19;
47081;PMS5003;33066;49.296;14.470;2022-07-01T01:50:54;22;20;
47081;PMS5003;33066;49.296;14.470;2022-07-01T01:53:20;19;18;
47081;PMS5003;33066;49.296;14.470;2022-07-01T01:55:45;25;24;
47081;PMS5003;33066;49.296;14.470;2022-07-01T01:58:11;30;28;
47081;PMS5003;33066;49.296;14.470;2022-07-01T02:00:36;22;21;
47081;PMS5003;33066;49.296;14.470;2022-07-01T02:03:02;23;20;
47081;PMS5003;33066;49.296;14.470;2022-07-01T02:05:27;19;16;
47081;PMS5003;33066;49.296;14.470;2022-07-01T02:07:52;23;23;
47081;PMS5003;33066;49.296;14.470;2022-07-01T02:10:18;21;19;
47081;PMS5003;33066;49.296;14.470;2022-07-01T02:12:43;26;25;
47081;PMS5003;33066;49.296;14.470;2022-07-01T02:15:09;21;20;
47081;PMS5003;33066;49.296;14.470;2022-07-01T02:17:35;22;21;
47081;PMS5003;33066;49.296;14.470;2022-07-01T02:20:00;27;25;
47081;PMS5003;33066;49.296;14.470;2022-07-01T02:22:27;28;25;
47081;PMS5003;33066;49.296;14.470;2022-07-01T02:24:51;25;25;
47081;PMS5003;33066;49.296;14.470;2022-07-01T02:27:16;27;26;
47081;PMS5003;33066;49.296;14.470;2022-07-01T02:29:42;19;18;
47081;PMS5003;33066;49.296;14.470;2022-07-01T02:32:07;30;26;
47081;PMS5003;33066;49.296;14.470;2022-07-01T02:34:33;30;28;
47081;PMS5003;33066;49.296;14.470;2022-07-01T02:36:58;31;28;
47081;PMS5003;33066;49.296;14.470;2022-07-01T02:39:24;20;19;
47081;PMS5003;33066;49.296;14.470;2022-07-01T02:41:49;21;21;
47081;PMS5003;33066;49.296;14.470;2022-07-01T02:44:15;33;28;
47081;PMS5003;33066;49.296;14.470;2022-07-01T02:46:41;25;22;
47081;PMS5003;33066;49.296;14.470;2022-07-01T02:49:06;27;23;
47081;PMS5003;33066;49.296;14.470;2022-07-01T02:51:31;24;23;
47081;PMS5003;33066;49.296;14.470;2022-07-01T02:53:56;27;27;
47081;PMS5003;33066;49.296;14.470;2022-07-01T02:56:23;30;27;
47081;PMS5003;33066;49.296;14.470;2022-07-01T02:58:48;22;22;
47081;PMS5003;33066;49.296;14.470;2022-07-01T03:01:12;24;24;
47081;PMS5003;33066;49.296;14.470;2022-07-01T03:03:37;31;28;
47081;PMS5003;33066;49.296;14.470;2022-07-01T03:06:03;27;27;
47081;PMS5003;33066;49.296;14.470;2022-07-01T03:08:28;30;29;
47081;PMS5003;33066;49.296;14.470;2022-07-01T03:12:59;23;21;
47081;PMS5003;33066;49.296;14.470;2022-07-01T03:15:25;28;23;
47081;PMS5003;33066;49.296;14.470;2022-07-01T03:17:51;27;25;
47081;PMS5003;33066;49.296;14.470;2022-07-01T03:20:17;21;19;
47081;PMS5003;33066;49.296;14.470;2022-07-01T03:22:43;26;23;
47081;PMS5003;33066;49.296;14.470;2022-07-01T03:25:08;31;31;
47081;PMS5003;33066;49.296;14.470;2022-07-01T03:27:33;26;24;
47081;PMS5003;33066;49.296;14.470;2022-07-01T03:29:58;27;25;
47081;PMS5003;33066;49.296;14.470;2022-07-01T03:32:24;25;24;
47081;PMS5003;33066;49.296;14.470;2022-07-01T03:34:50;26;24;
47081;PMS5003;33066;49.296;14.470;2022-07-01T03:37:16;29;27;
47081;PMS5003;33066;49.296;14.470;2022-07-01T03:39:41;25;25;
47081;PMS5003;33066;49.296;14.470;2022-07-01T03:42:07;20;18;
47081;PMS5003;33066;49.296;14.470;2022-07-01T03:44:32;25;25;
47081;PMS5003;33066;49.296;14.470;2022-07-01T03:46:59;21;20;
47081;PMS5003;33066;49.296;14.470;2022-07-01T03:49:23;30;22;
47081;PMS5003;33066;49.296;14.470;2022-07-01T03:51:50;27;24;
47081;PMS5003;33066;49.296;14.470;2022-07-01T03:54:13;25;21;
47081;PMS5003;33066;49.296;14.470;2022-07-01T03:56:39;30;27;
47081;PMS5003;33066;49.296;14.470;2022-07-01T03:59:04;23;23;
47081;PMS5003;33066;49.296;14.470;2022-07-01T04:01:29;29;23;
47081;PMS5003;33066;49.296;14.470;2022-07-01T04:03:55;27;25;
47081;PMS5003;33066;49.296;14.470;2022-07-01T04:06:20;31;28;
47081;PMS5003;33066;49.296;14.470;2022-07-01T04:08:46;28;27;
47081;PMS5003;33066;49.296;14.470;2022-07-01T04:11:11;27;23;
47081;PMS5003;33066;49.296;14.470;2022-07-01T04:13:37;29;29;
47081;PMS5003;33066;49.296;14.470;2022-07-01T04:16:04;23;23;
47081;PMS5003;33066;49.296;14.470;2022-07-01T04:18:27;24;24;
47081;PMS5003;33066;49.296;14.470;2022-07-01T04:20:53;30;27;
47081;PMS5003;33066;49.296;14.470;2022-07-01T04:23:18;27;24;
47081;PMS5003;33066;49.296;14.470;2022-07-01T04:25:44;26;24;
47081;PMS5003;33066;49.296;14.470;2022-07-01T04:28:09;26;25;
47081;PMS5003;33066;49.296;14.470;2022-07-01T04:30:34;25;22;
47081;PMS5003;33066;49.296;14.470;2022-07-01T04:32:59;32;26;
47081;PMS5003;33066;49.296;14.470;2022-07-01T04:35:25;32;28;
47081;PMS5003;33066;49.296;14.470;2022-07-01T04:37:50;28;27;
47081;PMS5003;33066;49.296;14.470;2022-07-01T04:40:16;36;32;
47081;PMS5003;33066;49.296;14.470;2022-07-01T04:42:42;34;31;
47081;PMS5003;33066;49.296;14.470;2022-07-01T04:45:07;30;27;
47081;PMS5003;33066;49.296;14.470;2022-07-01T04:47:32;30;29;
47081;PMS5003;33066;49.296;14.470;2022-07-01T04:49:58;31;28;
47081;PMS5003;33066;49.296;14.470;2022-07-01T04:52:23;30;27;
47081;PMS5003;33066;49.296;14.470;2022-07-01T04:54:49;23;22;
47081;PMS5003;33066;49.296;14.470;2022-07-01T04:57:14;25;23;
47081;PMS5003;33066;49.296;14.470;2022-07-01T04:59:40;24;24;
47081;PMS5003;33066;49.296;14.470;2022-07-01T05:02:05;30;24;
47081;PMS5003;33066;49.296;14.470;2022-07-01T05:04:30;33;30;
47081;PMS5003;33066;49.296;14.470;2022-07-01T05:06:56;34;29;
47081;PMS5003;33066;49.296;14.470;2022-07-01T05:09:22;32;25;
47081;PMS5003;33066;49.296;14.470;2022-07-01T05:11:47;23;21;
47081;PMS5003;33066;49.296;14.470;2022-07-01T05:14:13;23;21;
47081;PMS5003;33066;49.296;14.470;2022-07-01T05:16:38;34;32;
47081;PMS5003;33066;49.296;14.470;2022-07-01T05:19:04;28;28;
47081;PMS5003;33066;49.296;14.470;2022-07-01T05:21:29;31;27;
47081;PMS5003;33066;49.296;14.470;2022-07-01T05:23:55;32;27;
47081;PMS5003;33066;49.296;14.470;2022-07-01T05:26:20;27;26;
47081;PMS5003;33066;49.296;14.470;2022-07-01T05:28:47;30;28;
47081;PMS5003;33066;49.296;14.470;2022-07-01T05:31:11;28;25;
47081;PMS5003;33066;49.296;14.470;2022-07-01T05:33:36;32;30;
47081;PMS5003;33066;49.296;14.470;2022-07-01T05:36:02;33;30;
47081;PMS5003;33066;49.296;14.470;2022-07-01T05:38:27;28;25;
47081;PMS5003;33066;49.296;14.470;2022-07-01T05:40:53;32;30;
47081;PMS5003;33066;49.296;14.470;2022-07-01T05:43:19;31;26;
47081;PMS5003;33066;49.296;14.470;2022-07-01T05:45:44;28;24;
47081;PMS5003;33066;49.296;14.470;2022-07-01T05:48:10;28;27;
47081;PMS5003;33066;49.296;14.470;2022-07-01T05:50:36;27;23;
47081;PMS5003;33066;49.296;14.470;2022-07-01T05:53:00;25;25;
47081;PMS5003;33066;49.296;14.470;2022-07-01T05:55:25;42;35;
47081;PMS5003;33066;49.296;14.470;2022-07-01T05:57:51;30;29;
47081;PMS5003;33066;49.296;14.470;2022-07-01T06:00:17;34;31;
47081;PMS5003;33066;49.296;14.470;2022-07-01T06:02:42;29;26;
47081;PMS5003;33066;49.296;14.470;2022-07-01T06:05:08;32;29;
47081;PMS5003;33066;49.296;14.470;2022-07-01T06:07:34;25;24;
47081;PMS5003;33066;49.296;14.470;2022-07-01T06:09:58;24;24;
47081;PMS5003;33066;49.296;14.470;2022-07-01T06:12:24;25;24;
47081;PMS5003;33066;49.296;14.470;2022-07-01T06:14:49;23;22;
47081;PMS5003;33066;49.296;14.470;2022-07-01T06:17:15;38;31;
47081;PMS5003;33066;49.296;14.470;2022-07-01T06:19:41;30;26;
47081;PMS5003;33066;49.296;14.470;2022-07-01T06:22:06;24;24;
47081;PMS5003;33066;49.296;14.470;2022-07-01T06:24:33;27;26;
47081;PMS5003;33066;49.296;14.470;2022-07-01T06:26:57;25;20;
47081;PMS5003;33066;49.296;14.470;2022-07-01T06:29:22;30;29;
47081;PMS5003;33066;49.296;14.470;2022-07-01T06:31:48;20;19;
47081;PMS5003;33066;49.296;14.470;2022-07-01T06:34:13;24;22;
47081;PMS5003;33066;49.296;14.470;2022-07-01T06:36:39;23;22;
47081;PMS5003;33066;49.296;14.470;2022-07-01T06:39:05;18;17;
47081;PMS5003;33066;49.296;14.470;2022-07-01T06:41:31;22;20;
47081;PMS5003;33066;49.296;14.470;2022-07-01T06:43:56;24;22;
47081;PMS5003;33066;49.296;14.470;2022-07-01T06:46:21;26;22;
47081;PMS5003;33066;49.296;14.470;2022-07-01T06:48:48;21;20;
47081;PMS5003;33066;49.296;14.470;2022-07-01T06:51:12;20;18;
47081;PMS5003;33066;49.296;14.470;2022-07-01T06:53:37;23;21;
47081;PMS5003;33066;49.296;14.470;2022-07-01T06:56:03;21;19;
47081;PMS5003;33066;49.296;14.470;2022-07-01T06:58:30;23;22;
47081;PMS5003;33066;49.296;14.470;2022-07-01T07:00:54;17;17;
47081;PMS5003;33066;49.296;14.470;2022-07-01T07:03:19;23;21;
47081;PMS5003;33066;49.296;14.470;2022-07-01T07:05:46;27;20;
47081;PMS5003;33066;49.296;14.470;2022-07-01T07:08:11;24;20;
47081;PMS5003;33066;49.296;14.470;2022-07-01T07:10:36;28;25;
47081;PMS5003;33066;49.296;14.470;2022-07-01T07:13:01;21;21;
47081;PMS5003;33066;49.296;14.470;2022-07-01T07:15:27;20;19;
47081;PMS5003;33066;49.296;14.470;2022-07-01T07:17:52;22;21;
47081;PMS5003;33066;49.296;14.470;2022-07-01T07:20:18;20;19;
47081;PMS5003;33066;49.296;14.470;2022-07-01T07:22:43;27;23;
47081;PMS5003;33066;49.296;14.470;2022-07-01T07:25:09;24;21;
47081;PMS5003;33066;49.296;14.470;2022-07-01T07:27:35;20;19;
47081;PMS5003;33066;49.296;14.470;2022-07-01T07:29:59;26;25;
47081;PMS5003;33066;49.296;14.470;2022-07-01T07:32:25;16;15;
47081;PMS5003;33066;49.296;14.470;2022-07-01T07:34:50;15;15;
47081;PMS5003;33066;49.296;14.470;2022-07-01T07:37:15;17;16;
47081;PMS5003;33066;49.296;14.470;2022-07-01T07:39:41;23;20;
47081;PMS5003;33066;49.296;14.470;2022-07-01T07:42:06;19;18;
47081;PMS5003;33066;49.296;14.470;2022-07-01T07:44:32;20;17;
47081;PMS5003;33066;49.296;14.470;2022-07-01T07:46:59;14;14;
47081;PMS5003;33066;49.296;14.470;2022-07-01T07:49:23;15;15;
47081;PMS5003;33066;49.296;14.470;2022-07-01T07:51:49;15;14;
47081;PMS5003;33066;49.296;14.470;2022-07-01T07:54:15;18;17;
47081;PMS5003;33066;49.296;14.470;2022-07-01T07:56:40;17;16;
47081;PMS5003;33066;49.296;14.470;2022-07-01T07:59:05;24;19;
47081;PMS5003;33066;49.296;14.470;2022-07-01T08:01:32;19;18;
47081;PMS5003;33066;49.296;14.470;2022-07-01T08:03:56;19;16;
47081;PMS5003;33066;49.296;14.470;2022-07-01T08:06:21;16;15;
47081;PMS5003;33066;49.296;14.470;2022-07-01T08:08:47;22;20;
47081;PMS5003;33066;49.296;14.470;2022-07-01T08:11:14;23;23;
47081;PMS5003;33066;49.296;14.470;2022-07-01T08:13:38;17;17;
47081;PMS5003;33066;49.296;14.470;2022-07-01T08:16:04;15;15;
47081;PMS5003;33066;49.296;14.470;2022-07-01T08:18:31;14;13;
47081;PMS5003;33066;49.296;14.470;2022-07-01T08:20:55;19;18;
47081;PMS5003;33066;49.296;14.470;2022-07-01T08:23:21;21;20;
47081;PMS5003;33066;49.296;14.470;2022-07-01T08:25:46;16;15;
47081;PMS5003;33066;49.296;14.470;2022-07-01T08:28:12;16;16;
47081;PMS5003;33066;49.296;14.470;2022-07-01T08:30:38;15;14;
47081;PMS5003;33066;49.296;14.470;2022-07-01T08:33:03;18;14;
47081;PMS5003;33066;49.296;14.470;2022-07-01T08:35:29;13;12;
47081;PMS5003;33066;49.296;14.470;2022-07-01T08:37:54;15;14;
47081;PMS5003;33066;49.296;14.470;2022-07-01T08:40:24;20;19;
47081;PMS5003;33066;49.296;14.470;2022-07-01T08:42:46;14;14;
47081;PMS5003;33066;49.296;14.470;2022-07-01T08:45:12;17;15;
47081;PMS5003;33066;49.296;14.470;2022-07-01T08:50:03;14;14;
47081;PMS5003;33066;49.296;14.470;2022-07-01T08:52:29;15;12;
47081;PMS5003;33066;49.296;14.470;2022-07-01T08:54:54;18;16;
47081;PMS5003;33066;49.296;14.470;2022-07-01T08:57:20;17;16;
47081;PMS5003;33066;49.296;14.470;2022-07-01T08:59:56;15;15;
47081;PMS5003;33066;49.296;14.470;2022-07-01T09:02:11;20;20;
47081;PMS5003;33066;49.296;14.470;2022-07-01T09:04:36;12;12;
47081;PMS5003;33066;49.296;14.470;2022-07-01T09:07:03;14;12;
47081;PMS5003;33066;49.296;14.470;2022-07-01T09:09:28;13;13;
47081;PMS5003;33066;49.296;14.470;2022-07-01T09:11:55;14;11;
47081;PMS5003;33066;49.296;14.470;2022-07-01T09:14:19;14;14;
47081;PMS5003;33066;49.296;14.470;2022-07-01T09:16:45;13;12;
47081;PMS5003;33066;49.296;14.470;2022-07-01T09:19:10;17;17;
47081;PMS5003;33066;49.296;14.470;2022-07-01T09:21:35;14;13;
47081;PMS5003;33066;49.296;14.470;2022-07-01T09:24:02;14;13;
47081;PMS5003;33066;49.296;14.470;2022-07-01T09:26:26;14;14;
47081;PMS5003;33066;49.296;14.470;2022-07-01T09:28:52;15;14;
47081;PMS5003;33066;49.296;14.470;2022-07-01T09:31:17;10;10;
47081;PMS5003;33066;49.296;14.470;2022-07-01T09:33:43;10;10;
47081;PMS5003;33066;49.296;14.470;2022-07-01T09:36:08;14;14;
47081;PMS5003;33066;49.296;14.470;2022-07-01T09:38:33;15;15;
47081;PMS5003;33066;49.296;14.470;2022-07-01T09:41:00;13;13;
47081;PMS5003;33066;49.296;14.470;2022-07-01T09:43:25;12;12;
47081;PMS5003;33066;49.296;14.470;2022-07-01T09:45:50;12;11;
47081;PMS5003;33066;49.296;14.470;2022-07-01T09:48:15;11;11;
47081;PMS5003;33066;49.296;14.470;2022-07-01T09:50:41;11;11;
47081;PMS5003;33066;49.296;14.470;2022-07-01T09:53:07;12;12;
47081;PMS5003;33066;49.296;14.470;2022-07-01T09:55:33;9;9;
47081;PMS5003;33066;49.296;14.470;2022-07-01T09:57:58;10;10;
47081;PMS5003;33066;49.296;14.470;2022-07-01T10:00:23;11;11;
47081;PMS5003;33066;49.296;14.470;2022-07-01T10:02:49;13;11;
47081;PMS5003;33066;49.296;14.470;2022-07-01T10:05:15;12;10;
47081;PMS5003;33066;49.296;14.470;2022-07-01T10:07:44;14;13;
47081;PMS5003;33066;49.296;14.470;2022-07-01T10:10:12;16;15;
47081;PMS5003;33066;49.296;14.470;2022-07-01T10:12:34;10;10;
47081;PMS5003;33066;49.296;14.470;2022-07-01T10:14:58;10;10;
47081;PMS5003;33066;49.296;14.470;2022-07-01T10:17:27;10;10;
47081;PMS5003;33066;49.296;14.470;2022-07-01T10:19:49;12;12;
47081;PMS5003;33066;49.296;14.470;2022-07-01T10:22:24;11;10;
47081;PMS5003;33066;49.296;14.470;2022-07-01T10:24:41;8;8;
47081;PMS5003;33066;49.296;14.470;2022-07-01T10:27:09;9;8;
47081;PMS5003;33066;49.296;14.470;2022-07-01T10:29:32;11;10;
47081;PMS5003;33066;49.296;14.470;2022-07-01T10:32:01;11;11;
47081;PMS5003;33066;49.296;14.470;2022-07-01T10:34:23;8;8;
47081;PMS5003;33066;49.296;14.470;2022-07-01T10:39:16;10;9;
47081;PMS5003;33066;49.296;14.470;2022-07-01T10:41:42;10;10;
47081;PMS5003;33066;49.296;14.470;2022-07-01T10:44:07;12;12;
47081;PMS5003;33066;49.296;14.470;2022-07-01T10:46:39;8;8;
47081;PMS5003;33066;49.296;14.470;2022-07-01T10:48:56;11;10;
47081;PMS5003;33066;49.296;14.470;2022-07-01T10:53:49;10;10;
47081;PMS5003;33066;49.296;14.470;2022-07-01T10:56:15;12;10;
47081;PMS5003;33066;49.296;14.470;2022-07-01T10:58:39;9;9;
47081;PMS5003;33066;49.296;14.470;2022-07-01T11:01:04;9;8;
47081;PMS5003;33066;49.296;14.470;2022-07-01T11:03:33;10;10;
47081;PMS5003;33066;49.296;14.470;2022-07-01T11:05:56;11;10;
47081;PMS5003;33066;49.296;14.470;2022-07-01T11:08:22;11;10;
47081;PMS5003;33066;49.296;14.470;2022-07-01T11:10:50;11;9;
47081;PMS5003;33066;49.296;14.470;2022-07-01T11:13:13;9;8;
47081;PMS5003;33066;49.296;14.470;2022-07-01T11:15:38;8;8;
47081;PMS5003;33066;49.296;14.470;2022-07-01T11:18:04;8;8;
47081;PMS5003;33066;49.296;14.470;2022-07-01T11:20:30;8;8;
47081;PMS5003;33066;49.296;14.470;2022-07-01T11:22:54;12;11;
47081;PMS5003;33066;49.296;14.470;2022-07-01T11:25:21;9;9;
47081;PMS5003;33066;49.296;14.470;2022-07-01T11:27:46;7;6;
47081;PMS5003;33066;49.296;14.470;2022-07-01T11:30:12;9;9;
47081;PMS5003;33066;49.296;14.470;2022-07-01T11:32:37;10;8;
47081;PMS5003;33066;49.296;14.470;2022-07-01T11:35:04;8;8;
47081;PMS5003;33066;49.296;14.470;2022-07-01T11:37:28;8;8;
47081;PMS5003;33066;49.296;14.470;2022-07-01T11:42:20;7;7;
47081;PMS5003;33066;49.296;14.470;2022-07-01T11:44:45;10;10;
47081;PMS5003;33066;49.296;14.470;2022-07-01T11:47:12;8;8;
47081;PMS5003;33066;49.296;14.470;2022-07-01T11:52:04;8;7;
47081;PMS5003;33066;49.296;14.470;2022-07-01T11:54:28;7;7;
47081;PMS5003;33066;49.296;14.470;2022-07-01T11:56:54;6;6;
47081;PMS5003;33066;49.296;14.470;2022-07-01T11:59:19;7;7;
47081;PMS5003;33066;49.296;14.470;2022-07-01T12:04:12;5;5;
47081;PMS5003;33066;49.296;14.470;2022-07-01T12:06:38;8;5;
47081;PMS5003;33066;49.296;14.470;2022-07-01T12:09:02;8;6;
47081;PMS5003;33066;49.296;14.470;2022-07-01T12:11:28;5;4;
47081;PMS5003;33066;49.296;14.470;2022-07-01T12:13:54;9;8;
47081;PMS5003;33066;49.296;14.470;2022-07-01T12:16:19;3;3;
47081;PMS5003;33066;49.296;14.470;2022-07-01T12:18:51;8;7;
47081;PMS5003;33066;49.296;14.470;2022-07-01T12:21:11;5;5;
47081;PMS5003;33066;49.296;14.470;2022-07-01T12:23:36;6;6;
47081;PMS5003;33066;49.296;14.470;2022-07-01T12:26:03;5;5;
47081;PMS5003;33066;49.296;14.470;2022-07-01T12:28:30;4;4;
47081;PMS5003;33066;49.296;14.470;2022-07-01T12:31:03;6;5;
47081;PMS5003;33066;49.296;14.470;2022-07-01T12:33:19;7;5;
47081;PMS5003;33066;49.296;14.470;2022-07-01T12:35:45;5;5;
47081;PMS5003;33066;49.296;14.470;2022-07-01T12:38:15;7;7;
47081;PMS5003;33066;49.296;14.470;2022-07-01T12:40:37;7;7;
47081;PMS5003;33066;49.296;14.470;2022-07-01T12:43:04;8;7;
47081;PMS5003;33066;49.296;14.470;2022-07-01T12:45:28;8;7;
47081;PMS5003;33066;49.296;14.470;2022-07-01T12:47:55;7;7;
47081;PMS5003;33066;49.296;14.470;2022-07-01T12:50:20;7;7;
47081;PMS5003;33066;49.296;14.470;2022-07-01T12:55:13;7;6;
47081;PMS5003;33066;49.296;14.470;2022-07-01T12:57:37;9;8;
47081;PMS5003;33066;49.296;14.470;2022-07-01T13:00:03;8;7;
47081;PMS5003;33066;49.296;14.470;2022-07-01T13:02:30;5;4;
47081;PMS5003;33066;49.296;14.470;2022-07-01T13:04:54;6;6;
47081;PMS5003;33066;49.296;14.470;2022-07-01T13:07:20;8;7;
47081;PMS5003;33066;49.296;14.470;2022-07-01T13:09:45;9;8;
47081;PMS5003;33066;49.296;14.470;2022-07-01T13:12:11;11;8;
47081;PMS5003;33066;49.296;14.470;2022-07-01T13:14:37;7;6;
47081;PMS5003;33066;49.296;14.470;2022-07-01T13:17:03;6;6;
47081;PMS5003;33066;49.296;14.470;2022-07-01T13:19:29;5;5;
47081;PMS5003;33066;49.296;14.470;2022-07-01T13:21:56;6;6;
47081;PMS5003;33066;49.296;14.470;2022-07-01T13:24:20;6;5;
47081;PMS5003;33066;49.296;14.470;2022-07-01T13:26:46;5;5;
47081;PMS5003;33066;49.296;14.470;2022-07-01T13:29:12;6;6;
47081;PMS5003;33066;49.296;14.470;2022-07-01T13:31:37;7;5;
47081;PMS5003;33066;49.296;14.470;2022-07-01T13:34:03;6;5;
47081;PMS5003;33066;49.296;14.470;2022-07-01T13:36:29;5;4;
47081;PMS5003;33066;49.296;14.470;2022-07-01T13:38:54;5;5;
47081;PMS5003;33066;49.296;14.470;2022-07-01T13:41:20;5;5;
47081;PMS5003;33066;49.296;14.470;2022-07-01T13:43:46;7;6;
47081;PMS5003;33066;49.296;14.470;2022-07-01T13:46:12;5;5;
47081;PMS5003;33066;49.296;14.470;2022-07-01T13:48:38;3;3;
47081;PMS5003;33066;49.296;14.470;2022-07-01T13:51:03;5;5;
47081;PMS5003;33066;49.296;14.470;2022-07-01T13:53:30;4;4;
47081;PMS5003;33066;49.296;14.470;2022-07-01T13:55:55;5;5;
47081;PMS5003;33066;49.296;14.470;2022-07-01T13:58:21;5;5;
47081;PMS5003;33066;49.296;14.470;2022-07-01T14:00:47;6;6;
47081;PMS5003;33066;49.296;14.470;2022-07-01T14:03:12;7;7;
47081;PMS5003;33066;49.296;14.470;2022-07-01T14:05:38;8;7;
47081;PMS5003;33066;49.296;14.470;2022-07-01T14:08:04;9;9;
47081;PMS5003;33066;49.296;14.470;2022-07-01T14:10:29;6;6;
47081;PMS5003;33066;49.296;14.470;2022-07-01T14:12:55;7;6;
47081;PMS5003;33066;49.296;14.470;2022-07-01T14:15:21;6;6;
47081;PMS5003;33066;49.296;14.470;2022-07-01T14:17:47;8;8;
47081;PMS5003;33066;49.296;14.470;2022-07-01T14:20:13;8;8;
47081;PMS5003;33066;49.296;14.470;2022-07-01T14:22:39;7;7;
47081;PMS5003;33066;49.296;14.470;2022-07-01T14:25:04;8;7;
47081;PMS5003;33066;49.296;14.470;2022-07-01T14:27:30;7;7;
47081;PMS5003;33066;49.296;14.470;2022-07-01T14:29:56;8;7;
47081;PMS5003;33066;49.296;14.470;2022-07-01T14:32:22;7;6;
47081;PMS5003;33066;49.296;14.470;2022-07-01T14:34:47;8;7;
47081;PMS5003;33066;49.296;14.470;2022-07-01T14:37:14;6;5;
47081;PMS5003;33066;49.296;14.470;2022-07-01T14:39:39;7;7;
47081;PMS5003;33066;49.296;14.470;2022-07-01T14:42:05;4;4;
47081;PMS5003;33066;49.296;14.470;2022-07-01T14:44:31;6;4;
47081;PMS5003;33066;49.296;14.470;2022-07-01T14:46:57;7;7;
47081;PMS5003;33066;49.296;14.470;2022-07-01T14:49:22;13;12;
47081;PMS5003;33066;49.296;14.470;2022-07-01T14:51:49;6;6;
47081;PMS5003;33066;49.296;14.470;2022-07-01T14:54:14;5;5;
47081;PMS5003;33066;49.296;14.470;2022-07-01T14:56:40;5;5;
47081;PMS5003;33066;49.296;14.470;2022-07-01T14:59:05;3;3;
47081;PMS5003;33066;49.296;14.470;2022-07-01T15:01:31;7;6;
47081;PMS5003;33066;49.296;14.470;2022-07-01T15:03:57;5;5;
47081;PMS5003;33066;49.296;14.470;2022-07-01T15:06:23;8;6;
47081;PMS5003;33066;49.296;14.470;2022-07-01T15:08:49;6;6;
47081;PMS5003;33066;49.296;14.470;2022-07-01T15:11:14;6;5;
47081;PMS5003;33066;49.296;14.470;2022-07-01T15:13:40;5;5;
47081;PMS5003;33066;49.296;14.470;2022-07-01T15:16:06;6;5;
47081;PMS5003;33066;49.296;14.470;2022-07-01T15:18:32;6;6;
47081;PMS5003;33066;49.296;14.470;2022-07-01T15:20:58;6;6;
47081;PMS5003;33066;49.296;14.470;2022-07-01T15:23:25;7;7;
47081;PMS5003;33066;49.296;14.470;2022-07-01T15:25:49;3;3;
47081;PMS5003;33066;49.296;14.470;2022-07-01T15:28:15;5;5;
47081;PMS5003;33066;49.296;14.470;2022-07-01T15:30:40;4;4;
47081;PMS5003;33066;49.296;14.470;2022-07-01T15:33:08;4;4;
47081;PMS5003;33066;49.296;14.470;2022-07-01T15:35:32;4;4;
47081;PMS5003;33066;49.296;14.470;2022-07-01T15:37:59;4;4;
47081;PMS5003;33066;49.296;14.470;2022-07-01T15:40:24;5;5;
47081;PMS5003;33066;49.296;14.470;2022-07-01T15:42:49;9;8;
47081;PMS5003;33066;49.296;14.470;2022-07-01T15:45:15;3;3;
47081;PMS5003;33066;49.296;14.470;2022-07-01T15:47:40;5;5;
47081;PMS5003;33066;49.296;14.470;2022-07-01T15:50:05;6;4;
47081;PMS5003;33066;49.296;14.470;2022-07-01T15:52:31;3;3;
47081;PMS5003;33066;49.296;14.470;2022-07-01T15:54:55;5;4;
47081;PMS5003;33066;49.296;14.470;2022-07-01T15:57:21;2;2;
47081;PMS5003;33066;49.296;14.470;2022-07-01T15:59:46;4;4;
47081;PMS5003;33066;49.296;14.470;2022-07-01T16:02:11;4;4;
47081;PMS5003;33066;49.296;14.470;2022-07-01T16:04:36;4;4;
47081;PMS5003;33066;49.296;14.470;2022-07-01T16:07:01;4;4;
47081;PMS5003;33066;49.296;14.470;2022-07-01T16:09:26;4;4;
47081;PMS5003;33066;49.296;14.470;2022-07-01T16:11:51;4;4;
47081;PMS5003;33066;49.296;14.470;2022-07-01T16:14:16;3;3;
47081;PMS5003;33066;49.296;14.470;2022-07-01T16:16:41;3;2;
47081;PMS5003;33066;49.296;14.470;2022-07-01T16:19:06;4;4;
47081;PMS5003;33066;49.296;14.470;2022-07-01T16:21:31;3;3;